Time;durP1;ratioP1;P1;durP2;ratioP2;P2;SDS_P1;SDS_P2;PMS_P1;PMS_P2;Temp;Humidity;BMP_temperature;BMP_pressure;BME280_temperature;BME280_humidity;BME280_pressure;Samples;Min_cycle;Max_cycle;Signal;HPM_P1;HPM_P2
2023/04/15 00:02:01;;;;;;;3.90;2.25;;;3.10;99.90;;;;;;5010176;28;20212;-66
2023/04/15 00:04:30;;;;;;;2.47;2.28;;;3.10;99.90;;;;;;5010628;28;20198;-66
2023/04/15 00:06:59;;;;;;;2.60;2.10;;;3.10;99.90;;;;;;5010437;28;20233;-67
2023/04/15 00:09:26;;;;;;;2.70;2.08;;;3.10;99.90;;;;;;5010621;28;20282;-67
2023/04/15 00:11:53;;;;;;;3.75;2.80;;;3.10;99.90;;;;;;5009888;28;20206;-66
2023/04/15 00:14:19;;;;;;;4.45;2.50;;;3.10;99.90;;;;;;5010354;28;20226;-66
2023/04/15 00:16:48;;;;;;;2.20;2.10;;;3.10;99.90;;;;;;5010286;28;20333;-65
2023/04/15 00:19:15;;;;;;;2.97;2.58;;;3.10;99.90;;;;;;5010426;28;20226;-66
2023/04/15 00:21:42;;;;;;;3.83;2.92;;;3.10;99.90;;;;;;5009873;28;20206;-65
2023/04/15 00:24:10;;;;;;;3.97;2.22;;;3.00;99.90;;;;;;5010076;28;20644;-66
2023/04/15 00:26:37;;;;;;;2.65;2.45;;;3.00;99.90;;;;;;5010063;28;20218;-64
2023/04/15 00:29:04;;;;;;;2.83;2.25;;;2.90;99.90;;;;;;5009909;28;20788;-66
2023/04/15 00:31:31;;;;;;;3.83;2.42;;;2.90;99.90;;;;;;5009972;28;20563;-66
2023/04/15 00:33:58;;;;;;;7.20;3.75;;;2.90;99.90;;;;;;5010096;28;20218;-66
2023/04/15 00:36:25;;;;;;;12.73;4.25;;;2.80;99.90;;;;;;5009883;28;20588;-66
2023/04/15 00:38:52;;;;;;;5.85;3.70;;;2.80;99.90;;;;;;5012971;28;20206;-66
2023/04/15 00:41:21;;;;;;;5.53;3.25;;;2.80;99.90;;;;;;5013644;28;20230;-65
2023/04/15 00:43:48;;;;;;;3.50;2.80;;;2.80;99.90;;;;;;5014062;28;20265;-66
2023/04/15 00:46:17;;;;;;;3.58;2.72;;;2.80;99.90;;;;;;5013830;28;20735;-67
2023/04/15 00:48:43;;;;;;;4.15;2.90;;;2.80;99.90;;;;;;5020003;28;20572;-67
2023/04/15 00:51:10;;;;;;;6.05;2.75;;;2.70;99.90;;;;;;5033338;28;20201;-65
2023/04/15 00:53:37;;;;;;;1.95;1.85;;;2.70;99.90;;;;;;5033632;28;20202;-67
2023/04/15 00:56:04;;;;;;;2.97;2.50;;;2.70;99.90;;;;;;5033335;28;20208;-67
2023/04/15 00:58:32;;;;;;;4.07;3.25;;;2.70;99.90;;;;;;5033570;28;20263;-66
2023/04/15 01:00:59;;;;;;;3.08;2.60;;;2.70;99.90;;;;;;5033124;28;20205;-67
2023/04/15 01:03:26;;;;;;;7.75;3.20;;;2.70;99.90;;;;;;5033494;28;20657;-66
2023/04/15 01:05:57;;;;;;;6.03;3.15;;;2.70;99.90;;;;;;5033402;28;20212;-67
2023/04/15 01:08:26;;;;;;;4.25;3.58;;;2.70;99.90;;;;;;5033126;28;20225;-66
2023/04/15 01:10:53;;;;;;;5.40;2.63;;;2.60;99.90;;;;;;5033083;28;20308;-67
2023/04/15 01:13:21;;;;;;;3.13;2.25;;;2.60;99.90;;;;;;5033307;28;20206;-67
2023/04/15 01:15:49;;;;;;;4.10;2.05;;;2.60;99.90;;;;;;5033083;28;20438;-67
2023/04/15 01:18:15;;;;;;;2.70;2.13;;;2.60;99.90;;;;;;5033087;28;20208;-67
2023/04/15 01:20:42;;;;;;;4.75;2.30;;;2.60;99.90;;;;;;5032873;28;20210;-65
2023/04/15 01:23:10;;;;;;;2.97;1.83;;;2.60;99.90;;;;;;5033249;28;20206;-66
2023/04/15 01:25:38;;;;;;;3.22;2.50;;;2.50;99.90;;;;;;5033494;28;20202;-66
2023/04/15 01:28:05;;;;;;;6.85;2.42;;;2.50;99.90;;;;;;5032528;28;20320;-67
2023/04/15 01:30:34;;;;;;;3.63;3.28;;;2.50;99.90;;;;;;5032746;28;20205;-67
2023/04/15 01:33:01;;;;;;;5.60;4.20;;;2.50;99.90;;;;;;5032784;28;20243;-66
2023/04/15 01:35:28;;;;;;;7.00;4.20;;;2.50;99.90;;;;;;5032942;28;20220;-66
2023/04/15 01:37:59;;;;;;;6.60;4.88;;;2.40;99.90;;;;;;5032707;28;20225;-66
2023/04/15 01:40:26;;;;;;;9.32;5.20;;;2.40;99.90;;;;;;5032624;28;20677;-66
2023/04/15 01:42:54;;;;;;;7.15;4.90;;;2.40;99.90;;;;;;5032638;28;20293;-64
2023/04/15 01:45:21;;;;;;;7.32;5.35;;;2.30;99.90;;;;;;5032602;28;20217;-68
2023/04/15 01:47:48;;;;;;;7.40;4.60;;;2.30;99.90;;;;;;5032439;28;20229;-66
2023/04/15 01:50:15;;;;;;;9.90;4.95;;;2.30;99.90;;;;;;5031173;28;20209;-66
2023/04/15 01:52:42;;;;;;;7.10;4.38;;;2.20;99.90;;;;;;5032557;28;20264;-66
2023/04/15 01:55:10;;;;;;;4.45;3.25;;;2.20;99.90;;;;;;5032434;28;20299;-66
2023/04/15 01:57:37;;;;;;;3.88;3.08;;;2.20;99.90;;;;;;5032303;28;20731;-66
2023/04/15 02:00:07;;;;;;;5.13;3.60;;;2.20;99.90;;;;;;5031930;28;20704;-66
2023/04/15 02:02:34;;;;;;;5.90;2.97;;;2.20;99.90;;;;;;5032643;28;20216;-66
2023/04/15 02:05:01;;;;;;;4.65;3.20;;;2.20;99.90;;;;;;5032196;28;20202;-66
2023/04/15 02:07:31;;;;;;;7.90;3.55;;;2.10;99.90;;;;;;5032289;28;20218;-66
2023/04/15 02:09:58;;;;;;;5.53;3.30;;;2.10;99.90;;;;;;5031907;28;20202;-66
2023/04/15 02:12:24;;;;;;;7.75;3.30;;;2.00;99.90;;;;;;5032205;28;20619;-66
2023/04/15 02:14:51;;;;;;;6.32;4.30;;;2.00;99.90;;;;;;5032056;28;20218;-65
2023/04/15 02:17:19;;;;;;;3.80;3.50;;;2.00;99.90;;;;;;5031966;28;20229;-65
2023/04/15 02:19:47;;;;;;;4.45;2.83;;;2.00;99.90;;;;;;5031703;28;20205;-66
2023/04/15 02:22:17;;;;;;;7.40;2.80;;;2.00;99.90;;;;;;5032053;28;20209;-66
2023/04/15 02:24:44;;;;;;;2.53;2.10;;;2.00;99.90;;;;;;5031959;28;20297;-65
2023/04/15 02:27:15;;;;;;;2.30;2.08;;;2.00;99.90;;;;;;5031772;28;20222;-66
2023/04/15 02:29:41;;;;;;;2.90;2.63;;;2.00;99.90;;;;;;5031655;28;20209;-66
2023/04/15 02:32:08;;;;;;;3.67;1.70;;;2.00;99.90;;;;;;5031730;28;20197;-67
2023/04/15 02:34:38;;;;;;;1.88;1.77;;;1.90;99.90;;;;;;5031801;28;20225;-66
2023/04/15 02:37:04;;;;;;;3.78;2.15;;;1.90;99.90;;;;;;5031278;28;20571;-65
2023/04/15 02:39:31;;;;;;;3.00;2.20;;;1.90;99.90;;;;;;5031545;28;20657;-66
2023/04/15 02:41:59;;;;;;;2.70;2.35;;;1.90;99.90;;;;;;5031711;28;20626;-65
2023/04/15 02:44:26;;;;;;;6.82;3.20;;;1.80;99.90;;;;;;5031567;28;20284;-69
2023/04/15 02:46:53;;;;;;;7.10;2.95;;;1.80;99.90;;;;;;5031315;28;20229;-66
2023/04/15 02:49:20;;;;;;;3.15;2.45;;;1.80;99.90;;;;;;5031687;28;20216;-66
2023/04/15 02:51:48;;;;;;;8.50;2.70;;;1.80;99.90;;;;;;5031057;28;20206;-66
2023/04/15 02:54:15;;;;;;;5.03;1.75;;;1.80;99.90;;;;;;5031148;28;20951;-66
2023/04/15 02:56:42;;;;;;;5.07;2.30;;;1.80;99.90;;;;;;5031111;28;20222;-66
2023/04/15 02:59:08;;;;;;;6.97;2.65;;;1.80;99.90;;;;;;5031419;28;20202;-66
2023/04/15 03:01:35;;;;;;;2.30;1.85;;;1.70;99.90;;;;;;5031096;28;20684;-66
2023/04/15 03:04:02;;;;;;;7.20;2.60;;;1.70;99.90;;;;;;5031188;28;20209;-64
2023/04/15 03:06:28;;;;;;;3.13;1.77;;;1.70;99.90;;;;;;5031169;28;20217;-66
2023/04/15 03:08:58;;;;;;;2.50;2.30;;;1.60;99.90;;;;;;5031088;28;20208;-69
2023/04/15 03:11:25;;;;;;;2.55;2.30;;;1.60;99.90;;;;;;5030832;28;20198;-66
2023/04/15 03:13:52;;;;;;;2.70;1.67;;;1.60;99.90;;;;;;5031030;28;20233;-66
2023/04/15 03:16:19;;;;;;;3.33;1.70;;;1.50;99.90;;;;;;5030915;28;20225;-66
2023/04/15 03:18:45;;;;;;;5.70;2.30;;;1.50;99.90;;;;;;5030970;28;20202;-68
2023/04/15 03:21:12;;;;;;;1.60;1.50;;;1.50;99.90;;;;;;5030613;28;20202;-67
2023/04/15 03:23:39;;;;;;;1.60;1.40;;;1.50;99.90;;;;;;5031033;28;20209;-67
2023/04/15 03:26:07;;;;;;;2.60;1.50;;;1.50;99.90;;;;;;5030598;28;20198;-67
2023/04/15 03:28:34;;;;;;;3.30;2.00;;;1.50;99.90;;;;;;5030589;28;20213;-66
2023/04/15 03:31:00;;;;;;;2.70;1.80;;;1.50;99.90;;;;;;5030460;28;20260;-66
2023/04/15 03:33:27;;;;;;;5.55;1.75;;;1.50;99.90;;;;;;5030715;28;20209;-66
2023/04/15 03:35:54;;;;;;;3.13;1.90;;;1.40;99.90;;;;;;5030427;28;20221;-65
2023/04/15 03:38:20;;;;;;;4.20;2.17;;;1.50;99.90;;;;;;5030585;28;20704;-69
2023/04/15 03:40:47;;;;;;;2.63;2.40;;;1.50;99.90;;;;;;5030367;28;20661;-68
2023/04/15 03:43:15;;;;;;;1.73;1.63;;;1.40;99.90;;;;;;5030349;28;20273;-66
2023/04/15 03:45:42;;;;;;;2.70;1.90;;;1.50;99.90;;;;;;5030651;28;20222;-66
2023/04/15 03:48:09;;;;;;;1.50;1.40;;;1.40;99.90;;;;;;5030153;28;20225;-66
2023/04/15 03:50:35;;;;;;;4.15;2.63;;;1.40;99.90;;;;;;5030355;28;20201;-68
2023/04/15 03:53:02;;;;;;;3.33;2.13;;;1.40;99.90;;;;;;5030301;28;20198;-66
2023/04/15 03:55:28;;;;;;;3.13;1.85;;;1.40;99.90;;;;;;5030251;28;20221;-68
2023/04/15 03:57:55;;;;;;;2.90;2.08;;;1.40;99.90;;;;;;5030128;28;20690;-66
2023/04/15 04:00:23;;;;;;;2.17;1.95;;;1.40;99.90;;;;;;5030277;28;20202;-66
2023/04/15 04:02:50;;;;;;;2.38;2.15;;;1.50;99.90;;;;;;5030159;28;20213;-67
2023/04/15 04:05:17;;;;;;;2.97;2.30;;;1.40;99.90;;;;;;5030398;28;20209;-66
2023/04/15 04:07:43;;;;;;;2.95;2.25;;;1.50;99.90;;;;;;5005349;28;20753;-65
2023/04/15 04:10:10;;;;;;;2.15;1.95;;;1.50;99.90;;;;;;5003577;28;20206;-66
2023/04/15 04:12:37;;;;;;;2.63;2.22;;;1.40;99.90;;;;;;5001172;28;20217;-67
2023/04/15 04:15:05;;;;;;;5.40;2.65;;;1.40;99.90;;;;;;5003445;28;20772;-66
2023/04/15 04:17:33;;;;;;;3.10;2.20;;;1.40;99.90;;;;;;5000574;28;20222;-67
2023/04/15 04:20:00;;;;;;;2.20;1.80;;;1.30;99.90;;;;;;5002623;28;20946;-68
2023/04/15 04:22:27;;;;;;;2.72;2.33;;;1.20;99.90;;;;;;5003091;28;20598;-67
2023/04/15 04:24:53;;;;;;;2.53;1.80;;;1.20;99.90;;;;;;5002034;28;20601;-68
2023/04/15 04:27:20;;;;;;;2.25;1.70;;;1.20;99.90;;;;;;5003330;28;20576;-68
2023/04/15 04:29:48;;;;;;;2.05;1.65;;;1.20;99.90;;;;;;4999878;28;20266;-66
2023/04/15 04:32:15;;;;;;;2.75;2.00;;;1.10;99.90;;;;;;5004844;28;20670;-67
2023/04/15 04:34:43;;;;;;;3.60;1.90;;;1.20;99.90;;;;;;5001640;28;20213;-68
2023/04/15 04:37:10;;;;;;;5.72;2.10;;;1.20;99.90;;;;;;5000583;28;20227;-68
2023/04/15 04:39:36;;;;;;;3.00;1.70;;;1.10;99.90;;;;;;5001468;28;20202;-68
2023/04/15 04:42:03;;;;;;;1.98;1.77;;;1.20;99.90;;;;;;5002695;28;20206;-68
2023/04/15 04:44:30;;;;;;;3.47;2.00;;;1.20;99.90;;;;;;5004588;28;20210;-67
2023/04/15 04:46:57;;;;;;;2.30;2.03;;;1.20;99.90;;;;;;5001696;28;20218;-68
2023/04/15 04:49:23;;;;;;;2.10;1.73;;;1.30;99.90;;;;;;5005455;28;20202;-68
2023/04/15 04:51:52;;;;;;;3.08;2.15;;;1.30;99.90;;;;;;5000401;28;20214;-66
2023/04/15 04:54:18;;;;;;;4.20;2.25;;;1.20;99.90;;;;;;5003410;28;20567;-67
2023/04/15 04:56:45;;;;;;;2.60;1.98;;;1.20;99.90;;;;;;5000329;28;20233;-68
2023/04/15 04:59:12;;;;;;;2.72;1.92;;;1.30;99.90;;;;;;5003147;28;20205;-68
2023/04/15 05:01:39;;;;;;;2.67;1.98;;;1.30;99.90;;;;;;5005356;28;20464;-68
2023/04/15 05:04:06;;;;;;;2.13;1.50;;;1.30;99.90;;;;;;5009518;28;20326;-69
2023/04/15 05:06:35;;;;;;;2.10;1.67;;;1.20;99.90;;;;;;5009140;28;20248;-68
2023/04/15 05:09:03;;;;;;;3.30;2.13;;;1.20;99.90;;;;;;5009357;28;20618;-69
2023/04/15 05:11:30;;;;;;;2.38;2.00;;;1.20;99.90;;;;;;5008977;28;20210;-68
2023/04/15 05:13:58;;;;;;;8.07;1.98;;;1.10;99.90;;;;;;5009383;28;20252;-68
2023/04/15 05:16:25;;;;;;;2.35;1.70;;;1.10;99.90;;;;;;5009586;28;20230;-68
2023/04/15 05:18:52;;;;;;;2.25;1.80;;;1.10;99.90;;;;;;5009925;28;20626;-68
2023/04/15 05:21:19;;;;;;;2.47;2.10;;;1.20;99.90;;;;;;5009548;28;20541;-68
2023/04/15 05:23:45;;;;;;;5.90;2.60;;;1.20;99.90;;;;;;5010776;28;20198;-69
2023/04/15 05:26:13;;;;;;;4.45;2.38;;;1.20;99.90;;;;;;5013303;28;20573;-68
2023/04/15 05:28:40;;;;;;;2.65;2.03;;;1.30;99.90;;;;;;5067339;22;20253;-91
2023/04/15 05:31:50;;;;;;;2.60;2.40;;;1.30;99.90;;;;;;5086925;28;20234;-90
2023/04/15 05:37:19;;;;;;;3.60;2.47;;;1.60;99.90;;;;;;5088545;28;20311;-90
2023/04/15 05:40:03;;;;;;;3.05;2.35;;;1.70;99.90;;;;;;5074980;28;20232;-92
2023/04/15 05:43:08;;;;;;;3.80;2.35;;;1.80;99.90;;;;;;5087315;28;20281;-91
2023/04/15 05:48:54;;;;;;;;;;;;;;;;;;;;;
2023/04/15 05:51:41;;;;;;;2.90;2.33;;;2.20;99.90;;;;;;5096004;28;20660;-91
2023/04/15 05:54:40;;;;;;;;;;;;;;;;;;;;;
2023/04/15 05:57:28;;;;;;;2.50;2.00;;;2.40;99.90;;;;;;5096303;28;20269;-90
2023/04/15 06:02:49;;;;;;;3.90;2.40;;;2.80;99.90;;;;;;5094357;28;20261;-91
2023/04/15 06:05:17;;;;;;;3.17;2.05;;;3.00;99.90;;;;;;5095768;28;20203;-92
2023/04/15 06:08:11;;;;;;;3.60;2.20;;;3.10;99.90;;;;;;5095189;28;20207;-90
2023/04/15 06:10:57;;;;;;;3.22;2.47;;;3.30;99.90;;;;;;5095560;28;20296;-90
2023/04/15 06:13:32;;;;;;;2.95;2.65;;;3.50;99.90;;;;;;5095915;28;20207;-90
2023/04/15 06:16:38;;;;;;;4.30;2.20;;;3.70;99.90;;;;;;5098569;28;20200;-93
2023/04/15 06:19:05;;;;;;;4.30;2.30;;;3.90;99.90;;;;;;5084925;28;20220;-90
2023/04/15 06:21:31;;;;;;;3.35;2.35;;;4.10;99.90;;;;;;5083331;28;20207;-90
2023/04/15 06:24:00;;;;;;;2.92;2.65;;;4.30;99.90;;;;;;5088108;28;20268;-90
2023/04/15 06:26:27;;;;;;;4.00;2.13;;;4.50;99.90;;;;;;5079851;28;20223;-91
2023/04/15 06:28:58;;;;;;;3.20;2.72;;;4.70;99.90;;;;;;5087028;28;20258;-89
2023/04/15 06:31:26;;;;;;;2.80;2.40;;;4.80;99.90;;;;;;5084838;28;20228;-89
2023/04/15 06:33:53;;;;;;;4.00;3.08;;;5.10;99.90;;;;;;5098572;28;20182;-91
2023/04/15 06:36:20;;;;;;;3.70;2.05;;;5.30;99.90;;;;;;5097410;28;20216;-89
2023/04/15 06:38:46;;;;;;;4.90;2.78;;;5.60;99.90;;;;;;5085776;28;20232;-90
2023/04/15 06:41:13;;;;;;;3.47;2.40;;;5.70;99.90;;;;;;5081412;28;20212;-89
2023/04/15 06:43:40;;;;;;;4.65;3.17;;;6.00;99.90;;;;;;5079538;28;20677;-89
2023/04/15 06:46:35;;;;;;;3.50;2.50;;;6.30;99.90;;;;;;5079551;28;20189;-89
2023/04/15 06:49:26;;;;;;;4.13;3.13;;;6.50;99.90;;;;;;5093019;28;20620;-89
2023/04/15 06:52:37;;;;;;;2.90;2.10;;;6.90;99.90;;;;;;5097957;28;20234;-89
2023/04/15 06:58:07;;;;;;;4.03;2.65;;;7.40;99.90;;;;;;5092610;28;20191;-88
2023/04/15 07:00:34;;;;;;;4.45;3.08;;;7.60;99.90;;;;;;5097587;28;20207;-93
2023/04/15 07:03:04;;;;;;;9.15;3.95;;;7.80;99.90;;;;;;5097346;28;20290;-88
2023/04/15 07:05:32;;;;;;;4.15;3.15;;;7.90;99.90;;;;;;5094577;28;20286;-88
2023/04/15 07:07:59;;;;;;;4.05;2.60;;;8.00;99.90;;;;;;5094755;28;20226;-89
2023/04/15 07:10:26;;;;;;;6.18;2.88;;;8.00;99.90;;;;;;5094922;28;20211;-88
2023/04/15 07:12:52;;;;;;;2.80;2.20;;;8.20;99.90;;;;;;5094377;28;20200;-88
2023/04/15 07:15:19;;;;;;;4.63;3.42;;;8.20;99.90;;;;;;5093857;28;20287;-88
2023/04/15 07:17:46;;;;;;;7.25;3.30;;;8.30;99.90;;;;;;5094096;28;20681;-89
2023/04/15 07:20:13;;;;;;;5.97;3.15;;;8.20;99.90;;;;;;5094325;28;20711;-89
2023/04/15 07:22:41;;;;;;;5.03;3.42;;;8.30;99.90;;;;;;5094086;28;20578;-88
2023/04/15 07:25:09;;;;;;;4.70;2.80;;;8.40;99.90;;;;;;5094740;28;20208;-90
2023/04/15 07:27:35;;;;;;;4.30;2.95;;;8.40;99.90;;;;;;5094528;28;20199;-88
2023/04/15 07:30:02;;;;;;;3.42;3.10;;;8.60;99.90;;;;;;5094516;28;20211;-89
2023/04/15 07:32:29;;;;;;;6.03;3.30;;;8.70;99.90;;;;;;5096611;28;20203;-88
2023/04/15 07:34:56;;;;;;;5.47;3.70;;;8.90;99.90;;;;;;5097358;28;20211;-89
2023/04/15 07:37:23;;;;;;;2.75;2.55;;;9.10;99.90;;;;;;5096199;28;20215;-88
2023/04/15 07:39:51;;;;;;;3.45;2.80;;;9.30;99.90;;;;;;5094049;28;20228;-88
2023/04/15 07:42:18;;;;;;;4.90;3.10;;;9.50;99.90;;;;;;5094471;28;20280;-88
2023/04/15 07:45:14;;;;;;;3.45;2.80;;;9.70;99.90;;;;;;5101658;28;20214;-88
2023/04/15 07:47:57;;;;;;;2.90;2.60;;;10.00;99.90;;;;;;5094451;28;20261;-89
2023/04/15 07:50:25;;;;;;;4.30;2.83;;;10.60;99.90;;;;;;5094383;28;20203;-89
2023/04/15 07:52:51;;;;;;;4.13;2.95;;;11.00;99.90;;;;;;5093598;28;20206;-89
2023/04/15 07:55:21;;;;;;;11.63;4.28;;;11.20;99.90;;;;;;5093670;28;20210;-89
2023/04/15 07:57:48;;;;;;;4.78;3.20;;;11.30;99.90;;;;;;5094068;28;20714;-89
2023/04/15 08:00:16;;;;;;;17.27;6.03;;;11.60;99.90;;;;;;5096537;28;20200;-88
2023/04/15 08:02:43;;;;;;;9.45;4.32;;;11.70;99.90;;;;;;5096584;28;20210;-90
2023/04/15 08:05:10;;;;;;;3.63;2.83;;;12.00;99.90;;;;;;5098114;28;20199;-89
2023/04/15 08:07:37;;;;;;;6.03;3.60;;;12.20;99.90;;;;;;5096838;28;20203;-89
2023/04/15 08:10:05;;;;;;;5.00;2.85;;;12.20;99.90;;;;;;5097521;28;20206;-89
2023/04/15 08:12:33;;;;;;;3.40;2.60;;;12.10;99.90;;;;;;5099605;28;20203;-90
2023/04/15 08:15:01;;;;;;;4.00;2.70;;;12.00;99.90;;;;;;5112978;28;20196;-89
2023/04/15 08:17:27;;;;;;;2.60;2.40;;;11.80;99.90;;;;;;5106235;28;20766;-90
2023/04/15 08:19:54;;;;;;;3.45;3.10;;;11.80;99.90;;;;;;5103613;28;20219;-89
2023/04/15 08:22:21;;;;;;;7.15;3.30;;;11.70;99.90;;;;;;5101282;28;20209;-91
2023/04/15 08:24:48;;;;;;;3.90;2.42;;;11.90;99.90;;;;;;5099147;28;20656;-89
2023/04/15 08:27:14;;;;;;;3.50;2.63;;;12.20;99.90;;;;;;5099396;28;20271;-89
2023/04/15 08:29:44;;;;;;;3.13;2.83;;;12.50;99.90;;;;;;5098890;28;20231;-89
2023/04/15 08:32:11;;;;;;;3.97;2.60;;;12.80;99.90;;;;;;5099461;28;20191;-89
2023/04/15 08:34:37;;;;;;;7.43;3.20;;;13.10;99.90;;;;;;5095330;28;20554;-89
2023/04/15 08:37:05;;;;;;;4.57;3.73;;;13.50;99.90;;;;;;5096433;28;20549;-89
2023/04/15 08:39:32;;;;;;;3.30;3.00;;;13.80;99.90;;;;;;5100003;28;20907;-89
2023/04/15 08:42:02;;;;;;;3.10;2.80;;;14.10;99.90;;;;;;5100038;28;20806;-90
2023/04/15 08:44:31;;;;;;;3.30;2.30;;;14.50;99.90;;;;;;5098886;28;20457;-88
2023/04/15 08:47:01;;;;;;;4.40;2.07;;;14.80;99.90;;;;;;5097986;28;20475;-89
2023/04/15 08:49:29;;;;;;;2.87;1.70;;;14.80;99.20;;;;;;5098407;28;20509;-89
2023/04/15 08:51:59;;;;;;;5.23;2.30;;;15.10;98.90;;;;;;5098616;28;20466;-89
2023/04/15 08:54:26;;;;;;;2.73;2.00;;;15.60;98.50;;;;;;5097894;28;20461;-89
2023/04/15 08:56:54;;;;;;;2.23;1.60;;;16.30;96.90;;;;;;5098571;28;20481;-90
2023/04/15 08:59:21;;;;;;;3.47;1.60;;;17.00;96.20;;;;;;5100755;28;20527;-89
2023/04/15 09:01:49;;;;;;;2.37;1.70;;;17.60;95.20;;;;;;5101469;28;20453;-89
2023/04/15 09:04:18;;;;;;;2.53;2.00;;;18.00;94.00;;;;;;5097556;28;20493;-89
2023/04/15 09:06:45;;;;;;;1.60;1.43;;;17.90;92.60;;;;;;5102315;28;20473;-90
2023/04/15 09:09:13;;;;;;;4.10;2.63;;;17.60;92.30;;;;;;5098532;28;20478;-90
2023/04/15 09:11:39;;;;;;;1.90;1.57;;;17.50;91.90;;;;;;5098376;28;20500;-89
2023/04/15 09:14:06;;;;;;;1.87;1.70;;;17.50;92.70;;;;;;5098101;28;20466;-89
2023/04/15 09:16:56;;;;;;;1.70;1.60;;;17.30;92.10;;;;;;5098838;28;20457;-89
2023/04/15 09:19:25;;;;;;;3.60;1.93;;;17.40;91.70;;;;;;5097262;28;21006;-90
2023/04/15 09:21:54;;;;;;;4.40;1.57;;;17.50;93.10;;;;;;5096662;28;20506;-90
2023/04/15 09:24:21;;;;;;;3.70;1.80;;;17.50;91.70;;;;;;5096649;28;20541;-89
2023/04/15 09:27:03;;;;;;;2.20;1.63;;;17.20;90.50;;;;;;5097900;28;20477;-89
2023/04/15 09:29:31;;;;;;;1.60;1.50;;;17.80;92.70;;;;;;5097251;27;20598;-90
2023/04/15 09:32:08;;;;;;;2.43;1.37;;;19.10;91.50;;;;;;5097043;28;20515;-90
2023/04/15 09:35:17;;;;;;;4.67;1.60;;;20.20;87.10;;;;;;5098216;28;20457;-89
2023/04/15 09:38:16;;;;;;;2.00;1.60;;;20.50;86.00;;;;;;5100800;28;20461;-90
2023/04/15 09:40:54;;;;;;;1.50;1.40;;;20.00;83.20;;;;;;5103059;28;20528;-89
2023/04/15 09:43:22;;;;;;;2.10;1.40;;;19.40;82.00;;;;;;5112468;28;20483;-90
2023/04/15 09:45:50;;;;;;;1.60;1.50;;;19.30;83.70;;;;;;5103981;28;20461;-89
2023/04/15 09:48:43;;;;;;;1.70;1.20;;;19.50;86.00;;;;;;5101386;28;20486;-90
2023/04/15 09:54:45;;;;;;;1.63;1.53;;;20.30;81.20;;;;;;5096986;28;20552;-89
2023/04/15 09:57:25;;;;;;;2.90;1.80;;;20.40;82.70;;;;;;5096815;28;20535;-89
2023/04/15 10:03:22;;;;;;;2.57;1.73;;;20.80;84.40;;;;;;5094570;28;20838;-90
2023/04/15 10:06:13;;;;;;;2.70;1.57;;;20.70;83.40;;;;;;5097780;28;20481;-90
2023/04/15 10:14:58;;;;;;;2.33;1.50;;;19.20;79.70;;;;;;5096559;28;20461;-89
2023/04/15 10:17:28;;;;;;;1.90;1.33;;;18.30;80.30;;;;;;5096130;28;20454;-89
2023/04/15 10:20:37;;;;;;;2.00;1.80;;;17.50;79.50;;;;;;5097357;28;20523;-89
2023/04/15 10:28:40;;;;;;;3.53;1.70;;;16.10;86.00;;;;;;5095647;28;20962;-89
2023/04/15 10:31:18;;;;;;;2.07;1.87;;;16.10;85.90;;;;;;5097347;28;20518;-89
2023/04/15 10:33:47;;;;;;;2.97;2.00;;;16.40;88.40;;;;;;5098503;28;21007;-89
2023/04/15 10:38:55;;;;;;;2.50;2.30;;;16.50;85.20;;;;;;5093178;28;20576;-89
2023/04/15 10:41:25;;;;;;;1.77;1.67;;;16.30;83.50;;;;;;5094957;28;20445;-88
2023/04/15 10:43:53;;;;;;;2.70;1.80;;;16.10;84.60;;;;;;5096405;28;20545;-89
2023/04/15 10:46:24;;;;;;;3.33;2.17;;;16.00;85.60;;;;;;5096886;28;20453;-90
2023/04/15 10:48:52;;;;;;;2.70;1.80;;;16.30;86.30;;;;;;5095077;28;20517;-89
2023/04/15 10:51:28;;;;;;;2.10;1.90;;;16.50;86.70;;;;;;5096418;28;20967;-88
2023/04/15 10:53:57;;;;;;;2.83;2.13;;;16.90;87.60;;;;;;5095735;28;20462;-89
2023/04/15 10:56:25;;;;;;;3.20;2.20;;;16.90;86.80;;;;;;5096169;28;20487;-90
2023/04/15 10:58:52;;;;;;;2.97;2.30;;;17.10;88.50;;;;;;5096553;28;20488;-91
2023/04/15 11:01:21;;;;;;;2.40;2.20;;;17.60;85.70;;;;;;5095666;28;21005;-91
2023/04/15 11:03:49;;;;;;;2.30;1.87;;;18.00;87.60;;;;;;5095210;28;21008;-90
2023/04/15 11:06:57;;;;;;;2.30;2.10;;;18.70;89.10;;;;;;5097042;28;20959;-90
2023/04/15 11:10:06;;;;;;;3.77;2.43;;;19.30;84.60;;;;;;5100169;28;20526;-90
2023/04/15 11:16:01;;;;;;;4.80;2.50;;;18.50;86.60;;;;;;5088258;28;20562;-89
2023/04/15 11:18:32;;;;;;;2.73;2.23;;;17.80;84.20;;;;;;5095899;28;21010;-90
2023/04/15 11:21:02;;;;;;;2.20;1.90;;;17.30;86.20;;;;;;5096179;28;20458;-91
2023/04/15 11:23:34;;;;;;;3.40;2.27;;;17.00;87.10;;;;;;5096231;28;20500;-90
2023/04/15 11:26:04;;;;;;;2.53;2.07;;;16.90;87.70;;;;;;5095667;28;20461;-90
2023/04/15 11:28:33;;;;;;;3.13;2.50;;;16.60;89.70;;;;;;5120888;22;20838;-95
2023/04/15 11:31:09;;;;;;;2.57;2.37;;;16.30;90.20;;;;;;5080425;28;20478;-95
2023/04/15 11:33:36;;;;;;;3.10;2.80;;;16.50;90.90;;;;;;5078920;28;20489;-96
2023/04/15 11:36:04;;;;;;;2.80;2.17;;;16.90;89.60;;;;;;5074223;28;20448;-94
2023/04/15 11:38:31;;;;;;;2.80;2.10;;;17.30;86.50;;;;;;5081082;28;20468;-96
2023/04/15 11:50:34;;;;;;;5.00;1.90;;;19.60;79.80;;;;;;5067331;28;20456;-95
2023/04/15 11:53:06;;;;;;;2.40;1.90;;;18.50;81.70;;;;;;5074772;28;20459;-95
2023/04/15 11:55:51;;;;;;;2.90;2.70;;;17.60;85.20;;;;;;5076152;28;20478;-95
2023/04/15 11:58:20;;;;;;;3.33;2.27;;;16.80;87.20;;;;;;5075535;28;20448;-95
2023/04/15 12:00:58;;;;;;;2.47;2.20;;;16.80;86.60;;;;;;5075164;28;20522;-94
2023/04/15 12:03:27;;;;;;;3.00;2.50;;;17.80;85.10;;;;;;5066337;28;20581;-95
2023/04/15 12:06:18;;;;;;;2.30;2.03;;;18.90;83.40;;;;;;5065696;28;20543;-95
2023/04/15 12:08:53;;;;;;;2.80;2.40;;;19.90;81.30;;;;;;5067971;28;20491;-95
2023/04/15 12:11:21;;;;;;;4.70;2.67;;;20.30;81.50;;;;;;5073412;28;20461;-96
2023/04/15 12:14:02;;;;;;;2.90;2.10;;;19.90;78.80;;;;;;5073288;28;20528;-95
2023/04/15 12:16:30;;;;;;;6.50;2.90;;;19.20;80.10;;;;;;5072301;28;20464;-95
2023/04/15 12:18:59;;;;;;;3.10;2.37;;;18.80;81.60;;;;;;5073402;28;20487;-96
2023/04/15 12:30:34;;;;;;;2.60;2.40;;;20.00;79.60;;;;;;5086532;22;20517;-69
2023/04/15 12:33:03;;;;;;;2.80;2.20;;;20.10;79.90;;;;;;5079219;28;20457;-69
2023/04/15 12:35:30;;;;;;;4.17;2.80;;;19.90;79.20;;;;;;5090500;28;20481;-68
2023/04/15 12:37:57;;;;;;;3.67;2.57;;;19.40;79.10;;;;;;5083291;28;20481;-69
2023/04/15 12:40:23;;;;;;;2.50;2.27;;;18.60;78.50;;;;;;5089162;28;20446;-69
2023/04/15 12:42:50;;;;;;;4.10;2.70;;;17.90;79.10;;;;;;5085655;28;20527;-68
2023/04/15 12:45:17;;;;;;;2.63;2.43;;;17.40;81.00;;;;;;5094370;28;20453;-69
2023/04/15 12:47:44;;;;;;;6.33;2.87;;;16.50;85.90;;;;;;5076930;28;20593;-68
2023/04/15 12:50:12;;;;;;;3.17;2.33;;;16.00;88.50;;;;;;5093945;28;20994;-69
2023/04/15 12:52:38;;;;;;;2.17;2.07;;;16.10;90.60;;;;;;5077127;28;20458;-68
2023/04/15 12:55:06;;;;;;;1.83;1.73;;;16.20;90.10;;;;;;5094290;28;20461;-68
2023/04/15 12:57:33;;;;;;;3.33;2.20;;;16.10;90.30;;;;;;5085820;28;20478;-69
2023/04/15 12:59:59;;;;;;;2.20;2.00;;;15.90;91.00;;;;;;5093535;28;20468;-68
2023/04/15 13:02:27;;;;;;;3.47;2.40;;;15.60;92.30;;;;;;5078555;28;20459;-68
2023/04/15 13:04:54;;;;;;;3.83;2.13;;;15.30;92.80;;;;;;5093005;28;20809;-68
2023/04/15 13:07:22;;;;;;;3.90;2.47;;;15.00;92.20;;;;;;5079288;28;20903;-68
2023/04/15 13:09:49;;;;;;;2.27;2.07;;;15.00;93.20;;;;;;5081368;28;20815;-69
2023/04/15 13:12:16;;;;;;;3.00;2.30;;;14.80;92.20;;;;;;5087355;28;20945;-69
2023/04/15 13:14:42;;;;;;;2.70;2.23;;;14.70;92.30;;;;;;5093567;28;20869;-68
2023/04/15 13:17:10;;;;;;;2.30;2.10;;;14.60;93.00;;;;;;5093695;28;20917;-69
2023/04/15 13:19:37;;;;;;;2.80;2.17;;;14.40;93.10;;;;;;5085096;28;20557;-69
2023/04/15 13:22:03;;;;;;;2.40;2.07;;;14.10;93.00;;;;;;5073339;28;20458;-69
2023/04/15 13:24:31;;;;;;;2.70;2.00;;;14.00;92.80;;;;;;5089095;28;20449;-69
2023/04/15 13:26:58;;;;;;;2.47;2.20;;;13.80;93.50;;;;;;5082068;28;20474;-69
2023/04/15 13:29:25;;;;;;;2.40;2.20;;;13.70;93.60;;;;;;5081607;28;20463;-68
2023/04/15 13:31:52;;;;;;;2.10;1.90;;;13.60;92.50;;;;;;5089739;28;20457;-68
2023/04/15 13:34:18;;;;;;;3.33;2.10;;;13.40;92.60;;;;;;5081904;28;20462;-68
2023/04/15 13:36:45;;;;;;;2.70;2.30;;;13.50;93.40;;;;;;5089656;28;20488;-68
2023/04/15 13:39:12;;;;;;;2.63;2.17;;;13.50;94.00;;;;;;5086345;28;20594;-68
2023/04/15 13:41:40;;;;;;;2.87;2.00;;;13.50;92.50;;;;;;5076008;28;20467;-68
2023/04/15 13:44:07;;;;;;;1.80;1.70;;;13.40;92.20;;;;;;5085447;28;20468;-68
2023/04/15 13:46:33;;;;;;;3.97;1.83;;;13.30;91.30;;;;;;5092847;28;20538;-68
2023/04/15 13:49:00;;;;;;;2.53;2.20;;;13.10;92.10;;;;;;5085084;28;20454;-69
2023/04/15 13:51:27;;;;;;;3.73;2.03;;;13.10;91.20;;;;;;5092910;28;20488;-69
2023/04/15 13:53:53;;;;;;;2.10;1.90;;;13.10;91.20;;;;;;5092853;28;20469;-69
2023/04/15 13:56:20;;;;;;;2.00;1.80;;;13.00;91.10;;;;;;5092992;28;20477;-69
2023/04/15 13:58:48;;;;;;;2.13;1.80;;;13.00;92.20;;;;;;5092596;28;20571;-68
2023/04/15 14:01:15;;;;;;;4.30;1.90;;;13.00;91.20;;;;;;5092455;28;20877;-69
2023/04/15 14:03:41;;;;;;;2.30;1.70;;;13.10;91.30;;;;;;5075048;28;20462;-68
2023/04/15 14:06:08;;;;;;;1.57;1.47;;;13.30;90.90;;;;;;5084755;28;20465;-68